createdAt,value
2022-12-14T00:01:18.077Z,14.63
2022-12-14T00:03:45.532Z,13.30
2022-12-14T00:06:26.179Z,15.00
2022-12-14T00:08:55.666Z,13.27
2022-12-14T00:11:22.627Z,15.87
2022-12-14T00:14:07.721Z,15.00
2022-12-14T00:16:35.398Z,17.43
2022-12-14T00:19:02.658Z,16.37
2022-12-14T00:21:29.169Z,16.63
2022-12-14T00:23:58.532Z,14.73
2022-12-14T00:26:32.240Z,12.40
2022-12-14T00:29:00.696Z,16.30
2022-12-14T00:31:27.884Z,16.60
2022-12-14T00:33:55.405Z,15.90
2022-12-14T00:36:23.421Z,15.90
2022-12-14T00:38:49.919Z,14.20
2022-12-14T00:41:16.558Z,14.60
2022-12-14T00:43:43.427Z,14.87
2022-12-14T00:46:09.943Z,14.90
2022-12-14T00:48:36.482Z,13.07
2022-12-14T00:51:03.694Z,15.50
2022-12-14T00:53:30.314Z,13.73
2022-12-14T00:55:56.880Z,14.30
2022-12-14T00:58:25.074Z,14.20
2022-12-14T01:00:59.394Z,12.83
2022-12-14T01:03:26.641Z,13.07
2022-12-14T01:05:53.434Z,15.43
2022-12-14T01:08:20.188Z,13.83
2022-12-14T01:10:46.618Z,12.30
2022-12-14T01:13:13.057Z,13.17
2022-12-14T01:15:39.486Z,13.33
2022-12-14T01:18:05.987Z,14.03
2022-12-14T01:20:32.577Z,12.63
2022-12-14T01:22:59.072Z,11.53
2022-12-14T01:25:25.954Z,12.50
2022-12-14T01:27:52.516Z,12.00
2022-12-14T01:30:19.377Z,12.23
2022-12-14T01:32:46.596Z,12.17
2022-12-14T01:35:13.345Z,12.77
2022-12-14T01:37:39.762Z,12.87
2022-12-14T01:40:06.642Z,13.30
2022-12-14T01:42:36.096Z,12.23
2022-12-14T01:45:04.308Z,12.43
2022-12-14T01:47:40.837Z,12.77
2022-12-14T01:50:34.837Z,13.40
2022-12-14T01:53:06.695Z,11.90
2022-12-14T01:55:40.473Z,12.13
2022-12-14T01:58:24.666Z,14.03
2022-12-14T02:00:54.918Z,12.73
2022-12-14T02:03:35.075Z,12.07
2022-12-14T02:06:24.786Z,12.23
2022-12-14T02:08:53.202Z,13.63
2022-12-14T02:11:52.648Z,13.57
2022-12-14T02:18:11.153Z,13.03
2022-12-14T02:21:02.361Z,14.47
2022-12-14T02:23:46.317Z,14.43
2022-12-14T02:26:44.114Z,12.67
2022-12-14T02:29:48.206Z,12.10
2022-12-14T02:32:23.769Z,13.07
2022-12-14T02:34:59.679Z,11.57
2022-12-14T02:37:42.608Z,13.00
2022-12-14T02:40:19.324Z,12.20
2022-12-14T02:43:04.140Z,14.23
2022-12-14T02:45:44.979Z,13.10
2022-12-14T02:48:22.989Z,12.87
2022-12-14T02:50:59.929Z,12.43
2022-12-14T02:53:36.246Z,12.60
2022-12-14T02:56:08.879Z,12.17
2022-12-14T02:58:39.865Z,12.20
2022-12-14T03:01:12.115Z,13.40
2022-12-14T03:03:40.018Z,12.17
2022-12-14T03:06:14.797Z,11.17
2022-12-14T03:08:44.004Z,13.43
2022-12-14T03:11:15.491Z,11.60
2022-12-14T03:13:54.155Z,13.37
2022-12-14T03:16:30.660Z,11.87
2022-12-14T03:19:07.945Z,12.87
2022-12-14T03:21:38.108Z,13.97
2022-12-14T03:24:09.657Z,12.33
2022-12-14T03:26:44.187Z,13.80
2022-12-14T03:29:19.975Z,14.10
2022-12-14T03:31:54.860Z,12.37
2022-12-14T03:34:27.539Z,10.83
2022-12-14T03:37:01.389Z,11.00
2022-12-14T03:39:32.841Z,14.73
2022-12-14T03:42:24.103Z,13.10
2022-12-14T03:44:59.637Z,15.93
2022-12-14T03:47:47.870Z,11.73
2022-12-14T03:50:17.476Z,12.87
2022-12-14T03:52:53.587Z,13.67
2022-12-14T03:55:25.984Z,13.20
2022-12-14T03:58:46.297Z,13.13
2022-12-14T04:01:34.449Z,12.43
2022-12-14T04:04:09.698Z,11.80
2022-12-14T04:06:55.537Z,13.57
2022-12-14T04:09:28.095Z,13.53
2022-12-14T04:12:21.129Z,13.30
2022-12-14T04:15:14.042Z,15.30
2022-12-14T04:18:02.753Z,16.03
2022-12-14T04:20:42.074Z,14.93
2022-12-14T04:23:42.743Z,15.50
2022-12-14T04:26:15.240Z,14.50
2022-12-14T04:29:08.912Z,13.63
2022-12-14T04:31:38.907Z,13.90
2022-12-14T04:34:06.944Z,16.23
2022-12-14T04:36:42.789Z,14.37
2022-12-14T04:39:15.954Z,14.07
2022-12-14T04:41:48.186Z,14.00
2022-12-14T04:44:25.901Z,14.17
2022-12-14T04:46:54.300Z,14.47
2022-12-14T04:49:28.906Z,15.53
2022-12-14T04:52:05.967Z,15.73
2022-12-14T04:54:43.482Z,12.77
2022-12-14T04:57:21.763Z,11.40
2022-12-14T04:59:49.399Z,13.27
2022-12-14T05:02:34.183Z,13.10
2022-12-14T05:05:14.229Z,15.10
2022-12-14T05:07:51.802Z,14.37
2022-12-14T05:10:36.336Z,18.10
2022-12-14T05:13:09.997Z,18.20
2022-12-14T05:15:42.679Z,22.50
2022-12-14T05:18:10.502Z,30.40
2022-12-14T05:20:36.930Z,44.60
2022-12-14T05:23:03.527Z,63.57
2022-12-14T05:25:30.068Z,82.00
2022-12-14T05:27:56.555Z,75.90
2022-12-14T05:30:23.401Z,49.73
2022-12-14T05:32:50.214Z,33.93
2022-12-14T05:35:16.981Z,32.40
2022-12-14T05:37:43.437Z,28.03
2022-12-14T05:40:10.716Z,23.50
2022-12-14T05:42:42.730Z,22.53
2022-12-14T05:45:12.820Z,26.30
2022-12-14T05:47:39.752Z,21.80
2022-12-14T05:50:07.606Z,17.67
2022-12-14T05:52:34.450Z,15.60
2022-12-14T05:55:04.595Z,18.20
2022-12-14T05:57:31.838Z,14.93
2022-12-14T05:59:58.360Z,13.57
2022-12-14T06:02:24.879Z,14.40
2022-12-14T06:04:51.537Z,13.33
2022-12-14T06:07:20.679Z,14.40
2022-12-14T06:09:50.957Z,12.77
2022-12-14T06:12:18.130Z,13.10
2022-12-14T06:14:44.609Z,14.87
2022-12-14T06:17:12.667Z,13.77
2022-12-14T06:19:39.117Z,12.90
2022-12-14T06:22:05.537Z,12.37
2022-12-14T06:24:31.933Z,12.67
2022-12-14T06:26:58.368Z,12.53
2022-12-14T06:29:24.775Z,11.67
2022-12-14T06:31:51.165Z,13.87
2022-12-14T06:34:19.223Z,14.07
2022-12-14T06:36:47.018Z,12.37
2022-12-14T06:39:16.066Z,12.67
2022-12-14T06:41:43.161Z,14.93
2022-12-14T06:44:13.071Z,13.63
2022-12-14T06:46:39.847Z,13.20
2022-12-14T06:49:07.064Z,15.20
2022-12-14T06:51:39.367Z,15.43
2022-12-14T06:54:06.338Z,15.30
2022-12-14T06:56:35.418Z,15.90
2022-12-14T06:59:01.838Z,14.10
2022-12-14T07:01:29.196Z,12.83
2022-12-14T07:03:57.813Z,13.97
2022-12-14T07:06:25.429Z,21.80
2022-12-14T07:08:56.824Z,16.53
2022-12-14T07:11:23.525Z,14.47
2022-12-14T07:13:50.153Z,13.50
2022-12-14T07:16:19.258Z,14.17
2022-12-14T07:18:46.356Z,14.37
2022-12-14T07:21:15.223Z,14.43
2022-12-14T07:23:43.413Z,17.30
2022-12-14T07:26:24.797Z,21.87
2022-12-14T07:28:52.458Z,13.70
2022-12-14T07:31:22.396Z,14.63
2022-12-14T07:33:51.435Z,14.70
2022-12-14T07:36:20.073Z,14.20
2022-12-14T07:38:48.369Z,17.60
2022-12-14T07:41:21.970Z,16.60
2022-12-14T07:43:50.563Z,16.30
2022-12-14T07:46:19.849Z,18.17
2022-12-14T07:48:49.185Z,14.87
2022-12-14T07:51:18.659Z,17.27
2022-12-14T07:53:45.739Z,13.73
2022-12-14T07:56:15.137Z,14.67
2022-12-14T07:58:41.824Z,12.43
2022-12-14T08:01:08.172Z,14.87
2022-12-14T08:03:34.659Z,19.17
2022-12-14T08:06:04.735Z,16.20
2022-12-14T08:08:31.175Z,17.87
2022-12-14T08:10:57.596Z,16.80
2022-12-14T08:13:25.145Z,20.37
2022-12-14T08:15:52.666Z,15.60
2022-12-14T08:18:19.117Z,15.73
2022-12-14T08:20:53.352Z,15.10
2022-12-14T08:23:19.978Z,16.47
2022-12-14T08:25:56.991Z,14.27
2022-12-14T08:28:24.354Z,14.23
2022-12-14T08:30:51.350Z,15.80
2022-12-14T08:33:19.258Z,14.63
2022-12-14T08:35:45.957Z,18.30
2022-12-14T08:38:12.913Z,15.50
2022-12-14T08:40:39.933Z,16.60
2022-12-14T08:43:07.485Z,14.07
2022-12-14T08:45:33.943Z,15.60
2022-12-14T08:48:01.695Z,18.03
2022-12-14T08:50:29.300Z,15.83
2022-12-14T08:52:56.314Z,15.80
2022-12-14T08:55:28.296Z,18.70
2022-12-14T08:57:56.802Z,17.40
2022-12-14T09:00:23.340Z,18.10
2022-12-14T09:02:51.157Z,14.80
2022-12-14T09:05:17.755Z,13.73
2022-12-14T09:07:44.214Z,15.77
2022-12-14T09:10:11.104Z,16.47
2022-12-14T09:12:37.598Z,16.80
2022-12-14T09:15:04.250Z,18.60
2022-12-14T09:17:31.094Z,25.43
2022-12-14T09:19:58.081Z,22.10
2022-12-14T09:22:24.789Z,19.10
2022-12-14T09:24:51.989Z,20.50
2022-12-14T09:27:18.648Z,19.33
2022-12-14T09:29:45.061Z,17.57
2022-12-14T09:32:11.466Z,17.30
2022-12-14T09:34:37.906Z,14.90
2022-12-14T09:37:07.306Z,19.17
2022-12-14T09:39:37.850Z,15.13
2022-12-14T09:42:44.954Z,16.80
2022-12-14T09:45:25.274Z,19.80
2022-12-14T09:47:57.635Z,15.77
2022-12-14T09:50:25.215Z,18.10
2022-12-14T09:52:53.010Z,15.30
2022-12-14T09:55:29.533Z,18.57
2022-12-14T09:57:59.042Z,18.40
2022-12-14T10:00:31.372Z,17.33
2022-12-14T10:03:28.994Z,20.50
2022-12-14T10:06:23.793Z,18.67
2022-12-14T10:09:26.068Z,19.90
2022-12-14T10:12:16.897Z,19.80
2022-12-14T10:14:49.940Z,17.67
2022-12-14T10:17:26.124Z,17.77
2022-12-14T10:19:55.556Z,19.37
2022-12-14T10:22:46.499Z,20.97
2022-12-14T10:25:15.050Z,18.53
2022-12-14T10:30:36.970Z,15.77
2022-12-14T10:33:14.848Z,15.90
2022-12-14T10:35:51.826Z,16.70
2022-12-14T10:38:27.504Z,17.37
2022-12-14T10:41:00.120Z,19.53
2022-12-14T10:44:00.765Z,19.90
2022-12-14T10:46:55.761Z,22.20
2022-12-14T10:49:43.076Z,17.13
2022-12-14T10:52:17.818Z,18.00
2022-12-14T10:54:52.263Z,16.50
2022-12-14T10:57:26.368Z,16.03
2022-12-14T11:00:07.675Z,22.47
2022-12-14T11:02:41.800Z,16.20
2022-12-14T11:05:40.152Z,18.30
2022-12-14T11:08:07.944Z,19.73
2022-12-14T11:10:41.905Z,19.77
2022-12-14T11:13:20.617Z,18.90
2022-12-14T11:15:52.497Z,21.03
2022-12-14T11:18:24.274Z,19.80
2022-12-14T11:20:59.454Z,16.60
2022-12-14T11:23:28.574Z,19.00
2022-12-14T11:26:01.045Z,20.03
2022-12-14T11:28:38.766Z,19.60
2022-12-14T11:31:05.639Z,18.50
2022-12-14T11:33:49.803Z,18.13
2022-12-14T11:36:36.923Z,21.53
2022-12-14T11:39:14.181Z,20.03
2022-12-14T11:41:43.490Z,25.73
2022-12-14T11:44:16.119Z,20.93
2022-12-14T11:46:57.947Z,18.13
2022-12-14T11:49:26.398Z,17.53
2022-12-14T11:52:05.173Z,19.73
2022-12-14T11:54:33.420Z,19.03
2022-12-14T11:57:06.930Z,18.77
2022-12-14T11:59:41.320Z,17.97
2022-12-14T12:02:37.951Z,21.10
2022-12-14T12:05:13.464Z,20.20
2022-12-14T12:08:02.256Z,19.10
2022-12-14T12:10:34.554Z,18.70
2022-12-14T12:13:02.803Z,19.13
2022-12-14T12:15:41.013Z,18.70
2022-12-14T12:18:20.077Z,25.60
2022-12-14T12:21:12.373Z,22.97
2022-12-14T12:24:20.486Z,19.63
2022-12-14T12:26:56.447Z,20.20
2022-12-14T12:29:43.256Z,18.33
2022-12-14T12:32:27.233Z,26.87
2022-12-14T12:35:17.048Z,21.73
2022-12-14T12:38:06.466Z,21.70
2022-12-14T12:40:38.432Z,19.57
2022-12-14T12:43:15.492Z,18.03
2022-12-14T12:45:48.552Z,20.20
2022-12-14T12:48:34.650Z,20.70
2022-12-14T12:51:06.117Z,20.60
2022-12-14T12:53:47.515Z,20.63
2022-12-14T12:56:21.794Z,21.30
2022-12-14T12:58:52.868Z,21.83
2022-12-14T13:01:35.371Z,22.20
2022-12-14T13:04:05.622Z,23.93
2022-12-14T13:06:40.626Z,20.97
2022-12-14T13:09:30.995Z,20.90
2022-12-14T13:11:58.590Z,20.60
2022-12-14T13:14:34.284Z,20.00
2022-12-14T13:17:05.782Z,22.53
2022-12-14T13:19:50.164Z,19.73
2022-12-14T13:22:24.792Z,29.27
2022-12-14T13:24:58.988Z,24.87
2022-12-14T13:27:41.993Z,24.43
2022-12-14T13:30:08.925Z,20.27
2022-12-14T13:32:43.652Z,19.93
2022-12-14T13:35:31.967Z,18.87
2022-12-14T13:38:17.288Z,18.43
2022-12-14T13:41:17.942Z,19.23
2022-12-14T13:44:06.218Z,20.90
2022-12-14T13:46:32.824Z,19.27
2022-12-14T13:49:06.903Z,21.63
2022-12-14T13:51:39.746Z,17.80
2022-12-14T13:54:18.507Z,21.33
2022-12-14T13:56:45.729Z,20.80
2022-12-14T13:59:48.361Z,17.83
2022-12-14T14:02:30.205Z,20.37
2022-12-14T14:05:15.092Z,19.37
2022-12-14T14:07:47.498Z,25.80
2022-12-14T14:10:35.248Z,20.03
2022-12-14T14:13:29.670Z,23.10
2022-12-14T14:18:52.712Z,17.97
2022-12-14T14:21:22.095Z,19.10
2022-12-14T14:23:58.892Z,19.50
2022-12-14T14:26:31.377Z,20.87
2022-12-14T14:29:30.057Z,20.07
2022-12-14T14:32:01.433Z,21.27
2022-12-14T14:34:47.086Z,20.73
2022-12-14T14:37:14.877Z,22.33
2022-12-14T14:40:04.547Z,22.77
2022-12-14T14:42:33.087Z,19.93
2022-12-14T14:45:06.162Z,25.43
2022-12-14T14:47:39.125Z,19.60
2022-12-14T14:50:05.631Z,19.73
2022-12-14T14:52:38.916Z,25.33
2022-12-14T14:55:52.530Z,27.27
2022-12-14T14:58:39.473Z,24.30
2022-12-14T15:01:06.404Z,20.10
2022-12-14T15:03:45.222Z,25.73
2022-12-14T15:06:18.509Z,38.70
2022-12-14T15:08:50.313Z,23.37
2022-12-14T15:11:23.508Z,23.33
2022-12-14T15:14:27.801Z,23.70
2022-12-14T15:16:54.348Z,23.07
2022-12-14T15:19:28.117Z,21.73
2022-12-14T15:21:59.410Z,32.20
2022-12-14T15:24:26.505Z,23.40
2022-12-14T15:26:53.855Z,24.67
2022-12-14T15:29:28.068Z,24.90
2022-12-14T15:31:59.782Z,24.07
2022-12-14T15:34:27.308Z,23.00
2022-12-14T15:36:54.715Z,21.10
2022-12-14T15:39:32.622Z,22.43
2022-12-14T15:42:17.840Z,24.50
2022-12-14T15:44:56.922Z,26.00
2022-12-14T15:47:26.505Z,26.97
2022-12-14T15:49:59.220Z,22.20
2022-12-14T15:52:30.298Z,22.23
2022-12-14T15:54:59.096Z,24.33
2022-12-14T15:57:25.687Z,29.73
2022-12-14T15:59:55.785Z,34.40
2022-12-14T16:02:31.809Z,31.10
2022-12-14T16:05:01.909Z,31.53
2022-12-14T16:07:36.400Z,24.70
2022-12-14T16:10:08.369Z,28.40
2022-12-14T16:12:45.044Z,26.80
2022-12-14T16:15:19.523Z,28.40
2022-12-14T16:17:46.532Z,27.73
2022-12-14T16:20:21.348Z,29.67
2022-12-14T16:23:17.225Z,27.37
2022-12-14T16:26:15.929Z,25.90
2022-12-14T16:28:42.685Z,25.27
2022-12-14T16:31:23.935Z,27.97
2022-12-14T16:34:08.336Z,26.10
2022-12-14T16:36:36.753Z,24.67
2022-12-14T16:39:21.825Z,26.80
2022-12-14T16:41:51.214Z,25.73
2022-12-14T16:44:23.694Z,26.43
2022-12-14T16:47:03.057Z,22.10
2022-12-14T16:49:39.436Z,23.87
2022-12-14T16:52:35.470Z,29.73
2022-12-14T16:55:20.981Z,27.90
2022-12-14T16:57:47.386Z,29.20
2022-12-14T17:00:24.822Z,26.97
2022-12-14T17:03:20.283Z,28.53
2022-12-14T17:05:53.459Z,26.07
2022-12-14T17:08:20.023Z,28.20
2022-12-14T17:10:46.474Z,30.77
2022-12-14T17:13:13.009Z,27.40
2022-12-14T17:15:53.480Z,26.43
2022-12-14T17:18:22.770Z,26.83
2022-12-14T17:20:49.174Z,24.97
2022-12-14T17:23:17.557Z,25.67
2022-12-14T17:25:47.775Z,26.27
2022-12-14T17:28:24.784Z,22.50
2022-12-14T17:30:56.147Z,25.23
2022-12-14T17:33:27.122Z,26.57
2022-12-14T17:35:55.196Z,20.27
2022-12-14T17:38:23.031Z,23.73
2022-12-14T17:40:50.912Z,24.80
2022-12-14T17:43:26.688Z,23.27
2022-12-14T17:45:55.606Z,23.60
2022-12-14T17:48:22.232Z,26.00
2022-12-14T17:50:50.250Z,27.20
2022-12-14T17:53:20.828Z,23.40
2022-12-14T17:55:47.498Z,23.13
2022-12-14T17:58:14.038Z,113.07
2022-12-14T18:00:59.698Z,102.63
2022-12-14T18:03:26.763Z,66.80
2022-12-14T18:05:53.287Z,47.50
2022-12-14T18:08:21.237Z,33.27
2022-12-14T18:10:55.261Z,29.80
2022-12-14T18:13:22.227Z,28.27
2022-12-14T18:15:51.330Z,30.70
2022-12-14T18:18:22.675Z,30.03
2022-12-14T18:20:52.888Z,29.43
2022-12-14T18:23:21.663Z,26.67
2022-12-14T18:25:55.782Z,24.40
2022-12-14T18:28:22.935Z,23.73
2022-12-14T18:30:56.795Z,23.40
2022-12-14T18:33:26.102Z,24.70
2022-12-14T18:35:54.625Z,21.90
2022-12-14T18:38:21.801Z,25.80
2022-12-14T18:40:50.688Z,22.20
2022-12-14T18:43:20.513Z,32.50
2022-12-14T18:45:46.990Z,33.23
2022-12-14T18:48:13.432Z,27.10
2022-12-14T18:50:42.974Z,31.87
2022-12-14T18:53:14.277Z,34.53
2022-12-14T18:55:42.068Z,37.67
2022-12-14T18:58:18.058Z,29.93
2022-12-14T19:00:44.761Z,27.00
2022-12-14T19:03:11.486Z,26.77
2022-12-14T19:05:38.132Z,30.07
2022-12-14T19:08:04.844Z,35.37
2022-12-14T19:10:32.522Z,37.63
2022-12-14T19:12:59.301Z,38.20
2022-12-14T19:15:28.993Z,36.33
2022-12-14T19:17:56.345Z,31.70
2022-12-14T19:20:24.581Z,33.10
2022-12-14T19:22:51.541Z,28.43
2022-12-14T19:25:18.875Z,27.17
2022-12-14T19:28:25.808Z,35.37
2022-12-14T19:30:34.459Z,30.80
2022-12-14T19:33:00.948Z,36.27
2022-12-14T19:35:27.508Z,35.20
2022-12-14T19:37:54.063Z,37.43
2022-12-14T19:40:20.887Z,39.80
2022-12-14T19:42:47.546Z,36.43
2022-12-14T19:45:17.925Z,41.53
2022-12-14T19:47:44.455Z,37.13
2022-12-14T19:50:13.641Z,34.57
2022-12-14T19:52:40.505Z,37.23
2022-12-14T19:55:07.240Z,32.23
2022-12-14T19:57:33.707Z,33.87
2022-12-14T20:00:00.246Z,31.70
2022-12-14T20:02:27.290Z,28.27
2022-12-14T20:04:54.059Z,35.13
2022-12-14T20:07:20.560Z,32.47
2022-12-14T20:09:47.093Z,28.20
2022-12-14T20:12:13.788Z,33.20
2022-12-14T20:14:40.380Z,30.47
2022-12-14T20:17:09.381Z,48.83
2022-12-14T20:19:36.965Z,30.17
2022-12-14T20:22:04.907Z,28.17
2022-12-14T20:24:31.561Z,32.13
2022-12-14T20:26:58.153Z,28.57
2022-12-14T20:29:25.095Z,28.47
2022-12-14T20:31:51.772Z,29.53
2022-12-14T20:34:18.276Z,30.50
2022-12-14T20:36:44.748Z,36.53
2022-12-14T20:39:11.297Z,32.57
2022-12-14T20:41:38.159Z,47.10
2022-12-14T20:44:08.265Z,43.63
2022-12-14T20:46:38.450Z,38.43
2022-12-14T20:49:07.637Z,40.47
2022-12-14T20:51:36.598Z,47.13
2022-12-14T20:54:04.985Z,51.23
2022-12-14T20:56:31.442Z,50.20
2022-12-14T20:58:58.885Z,54.83
2022-12-14T21:01:25.678Z,57.50
2022-12-14T21:03:52.304Z,64.20
2022-12-14T21:06:21.356Z,57.50
2022-12-14T21:09:09.310Z,52.53
2022-12-14T21:11:57.248Z,51.33
2022-12-14T21:14:25.665Z,54.70
2022-12-14T21:16:52.384Z,56.20
2022-12-14T21:19:19.425Z,44.90
2022-12-14T21:21:51.613Z,40.97
2022-12-14T21:24:52.505Z,38.87
2022-12-14T21:27:10.090Z,41.13
2022-12-14T21:29:36.577Z,42.20
2022-12-14T21:32:04.307Z,35.57
2022-12-14T21:34:31.875Z,41.20
2022-12-14T21:36:58.986Z,37.63
2022-12-14T21:39:25.896Z,36.00
2022-12-14T21:42:10.469Z,39.20
2022-12-14T21:44:37.610Z,33.53
2022-12-14T21:47:06.662Z,34.37
2022-12-14T21:49:35.810Z,35.47
2022-12-14T21:52:07.037Z,38.17
2022-12-14T21:54:34.444Z,36.80
2022-12-14T21:57:19.423Z,40.37
2022-12-14T21:59:45.958Z,35.93
2022-12-14T22:02:18.628Z,33.67
2022-12-14T22:04:46.672Z,36.20
2022-12-14T22:07:20.962Z,32.80
2022-12-14T22:09:49.439Z,35.50
2022-12-14T22:12:17.850Z,30.90
2022-12-14T22:14:44.577Z,34.43
2022-12-14T22:17:12.721Z,29.43
2022-12-14T22:19:39.172Z,34.10
2022-12-14T22:22:05.633Z,41.80
2022-12-14T22:24:32.182Z,40.60
2022-12-14T22:26:59.438Z,37.00
2022-12-14T22:29:26.001Z,33.67
2022-12-14T22:31:52.583Z,42.63
2022-12-14T22:34:21.385Z,34.60
2022-12-14T22:36:49.460Z,35.47
2022-12-14T22:39:17.710Z,37.93
2022-12-14T22:41:44.966Z,35.70
2022-12-14T22:44:12.688Z,37.67
2022-12-14T22:46:40.045Z,35.80
2022-12-14T22:49:07.006Z,37.90
2022-12-14T22:51:33.565Z,36.33
2022-12-14T22:54:00.045Z,35.23
2022-12-14T22:56:39.228Z,35.27
2022-12-14T22:59:17.717Z,31.53
2022-12-14T23:01:50.004Z,37.43
2022-12-14T23:04:18.087Z,37.47
2022-12-14T23:06:44.955Z,37.10
2022-12-14T23:09:29.990Z,37.63
2022-12-14T23:12:19.699Z,37.50
2022-12-14T23:15:06.207Z,33.90
2022-12-14T23:17:51.061Z,34.37
2022-12-14T23:20:36.124Z,34.97
2022-12-14T23:23:26.110Z,42.80
2022-12-14T23:26:11.454Z,37.70
2022-12-14T23:28:57.377Z,32.00
2022-12-14T23:31:42.247Z,35.00
2022-12-14T23:34:26.984Z,32.37
2022-12-14T23:37:15.064Z,35.00
2022-12-14T23:40:04.397Z,35.40
2022-12-14T23:42:49.242Z,37.07
2022-12-14T23:45:34.131Z,35.43
2022-12-14T23:48:18.956Z,32.87
2022-12-14T23:51:03.944Z,37.83
2022-12-14T23:53:49.932Z,35.37
2022-12-14T23:56:35.394Z,36.47
2022-12-14T23:59:22.751Z,38.30
